Time;durP1;ratioP1;P1;durP2;ratioP2;P2;SDS_P1;SDS_P2;PMS_P1;PMS_P2;Temp;Humidity;BMP_temperature;BMP_pressure;BME280_temperature;BME280_humidity;BME280_pressure;Samples;Min_cycle;Max_cycle;Signal;HPM_P1;HPM_P2
2021/07/18 00:00:18;;;;;;;7.67;3.70;;;;;;;16.15;80.98;101680.38;695487;28;1258;-53
2021/07/18 00:00:38;;;;;;;6.90;3.70;;;;;;;16.12;81.36;101683.06;695357;28;4185;-53
2021/07/18 00:00:58;;;;;;;6.30;3.77;;;;;;;16.09;81.08;101677.78;695038;28;1936;-53
2021/07/18 00:01:19;;;;;;;6.72;3.58;;;;;;;16.10;81.08;101680.44;695320;28;2287;-52
2021/07/18 00:01:41;;;;;;;6.13;3.60;;;;;;;16.05;81.94;101674.34;694301;28;4539;-55
2021/07/18 00:02:02;;;;;;;6.93;3.78;;;;;;;16.07;81.15;101684.88;693777;28;1210;-55
2021/07/18 00:02:22;;;;;;;6.63;3.65;;;;;;;16.07;81.19;101677.81;695647;28;1434;-52
2021/07/18 00:02:43;;;;;;;6.40;3.37;;;;;;;16.09;81.03;101680.44;695763;28;1516;-52
2021/07/18 00:03:03;;;;;;;6.23;3.63;;;;;;;16.10;80.70;101679.56;695377;28;1244;-53
2021/07/18 00:03:23;;;;;;;7.00;3.63;;;;;;;16.10;80.73;101676.91;696251;28;1300;-54
2021/07/18 00:03:44;;;;;;;5.80;3.30;;;;;;;16.14;80.28;101678.63;691939;28;4066;-53
2021/07/18 00:04:04;;;;;;;5.93;3.50;;;;;;;16.16;80.23;101676.84;692918;28;4501;-52
2021/07/18 00:04:24;;;;;;;6.20;3.20;;;;;;;16.17;80.34;101675.94;692880;28;4559;-52
2021/07/18 00:04:45;;;;;;;7.43;3.70;;;;;;;16.14;80.90;101673.34;688958;28;4462;-54
2021/07/18 00:05:06;;;;;;;7.82;3.75;;;;;;;16.10;81.32;101669.00;690699;28;1346;-55
2021/07/18 00:05:27;;;;;;;6.43;3.40;;;;;;;16.10;80.86;101672.53;690752;28;1616;-52
2021/07/18 00:05:47;;;;;;;7.13;3.40;;;;;;;16.08;81.50;101678.72;692372;28;1219;-52
2021/07/18 00:06:07;;;;;;;7.03;3.80;;;;;;;16.01;82.00;101680.53;692909;28;1088;-54
2021/07/18 00:06:28;;;;;;;6.57;3.73;;;;;;;16.01;81.29;101677.91;693495;28;1369;-52
2021/07/18 00:06:48;;;;;;;6.03;3.80;;;;;;;16.05;81.04;101673.44;694885;28;4616;-53
2021/07/18 00:07:09;;;;;;;6.37;3.80;;;;;;;16.02;81.77;101677.03;694936;28;4144;-52
2021/07/18 00:07:29;;;;;;;5.50;3.40;;;;;;;16.03;81.17;101676.09;693466;28;4629;-52
2021/07/18 00:07:49;;;;;;;6.47;3.60;;;;;;;16.00;81.84;101677.03;693700;28;4457;-53
2021/07/18 00:08:10;;;;;;;6.93;3.67;;;;;;;15.98;81.90;101680.56;692239;28;2590;-52
2021/07/18 00:08:30;;;;;;;6.13;3.63;;;;;;;16.00;81.48;101676.16;695714;28;1335;-53
2021/07/18 00:08:50;;;;;;;5.33;3.53;;;;;;;15.99;81.57;101675.28;695014;28;1426;-54
2021/07/18 00:09:11;;;;;;;6.30;3.60;;;;;;;15.99;81.61;101682.31;695780;28;1645;-53
2021/07/18 00:09:31;;;;;;;5.63;3.43;;;;;;;15.98;81.66;101678.81;692707;28;1164;-53
2021/07/18 00:09:52;;;;;;;5.70;3.50;;;;;;;16.00;81.53;101687.59;692019;28;4231;-53
2021/07/18 00:10:13;;;;;;;5.97;3.30;;;;;;;16.04;81.50;101679.63;692012;28;4415;-52
2021/07/18 00:10:33;;;;;;;6.70;3.40;;;;;;;16.01;81.97;101675.25;694398;28;4448;-52
2021/07/18 00:10:54;;;;;;;7.75;3.60;;;;;;;15.97;81.72;101676.19;693811;28;4264;-53
2021/07/18 00:11:14;;;;;;;6.47;3.47;;;;;;;15.98;81.23;101677.94;695179;28;1662;-52
2021/07/18 00:11:35;;;;;;;7.17;3.50;;;;;;;15.99;81.18;101670.00;698364;28;1562;-53
2021/07/18 00:11:55;;;;;;;6.17;3.40;;;;;;;15.94;82.28;101677.09;696881;28;1285;-51
2021/07/18 00:12:15;;;;;;;5.53;3.40;;;;;;;15.94;81.47;101670.94;695364;28;1411;-52
2021/07/18 00:12:36;;;;;;;5.97;3.60;;;;;;;15.98;81.45;101677.94;695798;28;1617;-53
2021/07/18 00:12:56;;;;;;;6.35;3.55;;;;;;;15.97;81.38;101673.56;694625;28;3973;-52
2021/07/18 00:13:19;;;;;;;6.20;3.40;;;;;;;15.98;81.57;101681.44;694780;28;4209;-52
2021/07/18 00:13:39;;;;;;;4.93;3.30;;;;;;;15.95;81.94;101672.69;693996;28;4559;-55
2021/07/18 00:14:00;;;;;;;5.20;3.43;;;;;;;15.92;82.39;101683.25;694920;28;4240;-54
2021/07/18 00:14:20;;;;;;;5.65;3.42;;;;;;;15.94;81.97;101678.88;694037;28;2472;-52
2021/07/18 00:14:41;;;;;;;6.83;3.50;;;;;;;15.94;81.96;101678.88;696370;28;1360;-53
2021/07/18 00:15:01;;;;;;;5.93;3.50;;;;;;;15.91;81.91;101681.50;695537;28;1151;-53
2021/07/18 00:15:21;;;;;;;5.80;3.40;;;;;;;15.90;81.65;101680.66;695816;28;1294;-52
2021/07/18 00:15:42;;;;;;;5.78;3.63;;;;;;;15.94;81.45;101671.81;694816;28;3544;-54
2021/07/18 00:16:02;;;;;;;5.57;3.57;;;;;;;15.97;81.41;101678.81;694659;28;3704;-52
2021/07/18 00:16:23;;;;;;;6.00;3.58;;;;;;;15.93;82.42;101677.97;694209;28;3910;-52
2021/07/18 00:16:44;;;;;;;6.13;3.50;;;;;;;15.88;82.24;101682.44;693776;28;4425;-52
2021/07/18 00:17:04;;;;;;;6.03;3.28;;;;;;;15.91;81.54;101674.50;697319;28;4296;-53
2021/07/18 00:17:25;;;;;;;5.65;3.33;;;;;;;15.95;81.48;101673.56;697492;28;1382;-52
2021/07/18 00:17:47;;;;;;;5.50;3.43;;;;;;;15.90;81.95;101678.00;697325;28;1838;-53
2021/07/18 00:18:08;;;;;;;5.63;3.50;;;;;;;15.83;82.26;101666.66;696805;28;1234;-55
2021/07/18 00:18:29;;;;;;;6.15;3.47;;;;;;;15.85;82.26;101671.91;696738;28;1232;-52
2021/07/18 00:18:49;;;;;;;7.07;3.70;;;;;;;15.83;82.17;101679.84;697258;28;1279;-52
2021/07/18 00:19:09;;;;;;;6.90;3.90;;;;;;;15.83;82.28;101671.06;694839;28;4504;-54
2021/07/18 00:19:30;;;;;;;5.90;3.57;;;;;;;15.83;82.09;101678.97;694756;28;4694;-52
2021/07/18 00:19:50;;;;;;;5.30;3.30;;;;;;;15.81;82.21;101675.47;696015;28;4495;-52
2021/07/18 00:20:12;;;;;;;6.70;3.70;;;;;;;15.74;83.09;101677.28;697236;28;1792;-52
2021/07/18 00:20:33;;;;;;;6.80;3.42;;;;;;;15.75;82.79;101676.38;697086;28;5042;-53
2021/07/18 00:20:53;;;;;;;6.28;3.20;;;;;;;15.80;82.35;101674.59;696773;28;1723;-53
2021/07/18 00:21:14;;;;;;;6.50;3.47;;;;;;;15.94;81.86;101668.31;697812;28;2003;-53
2021/07/18 00:21:35;;;;;;;5.43;3.38;;;;;;;16.05;81.24;101668.16;698016;28;1308;-52
2021/07/18 00:21:55;;;;;;;5.75;3.60;;;;;;;15.93;81.82;101672.69;696216;28;1327;-55
2021/07/18 00:22:16;;;;;;;6.50;3.77;;;;;;;15.80;82.29;101669.31;694160;28;3749;-53
2021/07/18 00:22:36;;;;;;;6.30;3.63;;;;;;;15.83;81.87;101671.06;696641;28;4788;-53
2021/07/18 00:22:57;;;;;;;6.07;3.73;;;;;;;15.78;82.50;101667.56;696331;28;1574;-54
2021/07/18 00:23:17;;;;;;;6.05;3.45;;;;;;;15.79;82.25;101671.94;696989;28;3567;-52
2021/07/18 00:23:38;;;;;;;5.85;3.38;;;;;;;15.79;82.75;101675.47;697414;28;4557;-52
2021/07/18 00:23:58;;;;;;;6.37;3.60;;;;;;;15.81;81.96;101668.44;697707;28;1468;-52
2021/07/18 00:24:19;;;;;;;6.35;3.40;;;;;;;15.84;81.56;101664.91;697598;28;1690;-52
2021/07/18 00:24:39;;;;;;;5.67;3.53;;;;;;;15.88;81.67;101669.25;694843;28;1437;-54
2021/07/18 00:24:59;;;;;;;6.43;3.60;;;;;;;15.87;81.91;101670.16;694844;28;1435;-54
2021/07/18 00:25:20;;;;;;;6.63;3.90;;;;;;;15.80;82.46;101665.84;695421;28;2933;-52
2021/07/18 00:25:40;;;;;;;7.33;3.83;;;;;;;15.75;83.11;101662.31;693850;28;4899;-53
2021/07/18 00:26:01;;;;;;;7.38;3.40;;;;;;;15.71;83.15;101673.78;694452;28;1595;-52
2021/07/18 00:26:22;;;;;;;5.50;3.60;;;;;;;15.72;82.85;101670.28;694611;28;4078;-55
2021/07/18 00:26:42;;;;;;;6.20;3.50;;;;;;;15.71;83.35;101672.00;694712;28;3027;-53
2021/07/18 00:27:03;;;;;;;5.87;3.40;;;;;;;15.71;83.13;101673.78;694884;28;1764;-51
2021/07/18 00:27:24;;;;;;;5.55;3.47;;;;;;;15.67;83.48;101672.94;694799;28;1791;-52
2021/07/18 00:27:44;;;;;;;5.70;3.50;;;;;;;15.64;83.23;101675.59;696381;28;1476;-53
2021/07/18 00:28:04;;;;;;;6.15;3.53;;;;;;;15.72;82.42;101667.63;695469;28;1260;-53
2021/07/18 00:28:25;;;;;;;5.47;3.50;;;;;;;15.71;83.03;101679.94;694886;28;4605;-51
2021/07/18 00:28:45;;;;;;;6.18;3.40;;;;;;;15.68;82.95;101672.06;694284;28;4377;-52
2021/07/18 00:29:05;;;;;;;5.77;3.20;;;;;;;15.71;82.49;101673.78;695597;28;1875;-54
2021/07/18 00:29:26;;;;;;;6.23;3.40;;;;;;;15.73;82.35;101678.16;694675;28;1673;-56
2021/07/18 00:29:46;;;;;;;5.63;3.42;;;;;;;15.74;82.62;101668.47;695988;28;4458;-52
2021/07/18 00:30:08;;;;;;;5.43;3.33;;;;;;;15.72;83.07;101672.91;694981;28;4462;-53
2021/07/18 00:30:29;;;;;;;5.15;3.38;;;;;;;15.71;82.81;101673.78;695472;28;1870;-54
2021/07/18 00:30:49;;;;;;;5.90;3.30;;;;;;;15.70;82.50;101672.03;694585;28;1636;-54
2021/07/18 00:31:10;;;;;;;5.68;3.33;;;;;;;15.74;82.43;101681.66;695846;28;1349;-53
2021/07/18 00:31:30;;;;;;;5.47;3.33;;;;;;;15.72;83.07;101678.19;694906;28;4319;-53
2021/07/18 00:31:51;;;;;;;4.80;3.30;;;;;;;15.64;83.62;101672.97;694226;28;4678;-53
2021/07/18 00:32:12;;;;;;;5.90;3.45;;;;;;;15.63;83.23;101676.50;695049;28;2021;-51
2021/07/18 00:32:32;;;;;;;5.67;3.40;;;;;;;15.62;83.77;101672.13;695201;28;1331;-52
2021/07/18 00:32:53;;;;;;;4.93;3.40;;;;;;;15.65;83.01;101674.72;697556;28;4228;-52
2021/07/18 00:33:13;;;;;;;6.22;3.17;;;;;;;15.63;83.37;101673.84;698329;28;4349;-54
2021/07/18 00:33:34;;;;;;;6.65;3.45;;;;;;;15.61;83.81;101681.78;697935;28;1628;-52
2021/07/18 00:33:54;;;;;;;6.75;3.67;;;;;;;15.57;83.61;101673.94;698290;28;2025;-51
2021/07/18 00:34:15;;;;;;;6.23;3.53;;;;;;;15.55;83.53;101673.06;698612;28;1623;-53
2021/07/18 00:34:35;;;;;;;5.73;3.60;;;;;;;15.50;83.94;101675.75;696847;28;4649;-56
2021/07/18 00:34:55;;;;;;;6.18;3.63;;;;;;;15.50;83.73;101671.31;694304;28;4548;-54
2021/07/18 00:35:16;;;;;;;6.53;3.80;;;;;;;15.49;84.11;101676.63;693906;28;1818;-55
2021/07/18 00:35:37;;;;;;;5.95;3.60;;;;;;;15.44;84.95;101667.91;695491;28;1611;-53
2021/07/18 00:35:57;;;;;;;6.18;3.50;;;;;;;15.40;84.65;101674.09;694950;28;1788;-51
2021/07/18 00:36:19;;;;;;;6.47;3.50;;;;;;;15.38;84.53;101668.84;695347;28;4594;-55
2021/07/18 00:36:40;;;;;;;6.53;3.53;;;;;;;15.42;84.03;101674.94;695046;28;3956;-53
2021/07/18 00:37:00;;;;;;;5.10;3.35;;;;;;;15.48;83.94;101672.25;694721;28;2303;-53
2021/07/18 00:37:21;;;;;;;4.83;3.40;;;;;;;15.45;83.70;101667.88;695269;28;1859;-52
2021/07/18 00:37:41;;;;;;;6.30;3.50;;;;;;;15.44;83.92;101670.53;693879;28;4527;-52
2021/07/18 00:38:02;;;;;;;6.57;3.60;;;;;;;15.41;84.18;101666.16;694344;28;4531;-54
2021/07/18 00:38:25;;;;;;;5.95;3.50;;;;;;;15.40;84.04;101674.09;694325;28;2057;-54
2021/07/18 00:38:46;;;;;;;6.47;3.67;;;;;;;15.45;84.04;101669.63;694598;28;1910;-55
2021/07/18 00:39:06;;;;;;;6.50;3.58;;;;;;;15.45;84.31;101673.16;695378;28;1460;-53
2021/07/18 00:39:27;;;;;;;6.75;3.53;;;;;;;15.46;83.52;101674.03;695098;28;4177;-51
2021/07/18 00:39:47;;;;;;;6.60;3.40;;;;;;;15.45;83.61;101670.53;694659;28;4218;-54
2021/07/18 00:40:09;;;;;;;5.17;3.60;;;;;;;15.53;82.79;101669.56;695506;28;1768;-53
2021/07/18 00:40:29;;;;;;;5.45;3.53;;;;;;;15.58;82.63;101668.63;694777;28;4306;-53
2021/07/18 00:40:51;;;;;;;5.23;3.30;;;;;;;15.58;82.85;101679.19;694120;28;4493;-56
2021/07/18 00:41:11;;;;;;;4.70;3.40;;;;;;;15.62;82.56;101674.75;694726;28;4098;-52
2021/07/18 00:41:32;;;;;;;6.25;3.53;;;;;;;15.59;83.41;101670.41;694529;28;1520;-53
2021/07/18 00:41:53;;;;;;;5.13;3.30;;;;;;;15.57;83.27;101671.28;693982;28;1989;-54
2021/07/18 00:42:18;;;;;;;5.13;3.30;;;;;;;15.56;82.49;101670.44;695570;28;1331;-52
2021/07/18 00:42:38;;;;;;;6.05;3.40;;;;;;;15.46;83.63;101672.25;695276;28;3955;-53
2021/07/18 00:42:59;;;;;;;5.65;3.53;;;;;;;15.46;83.50;101676.66;694973;28;4217;-53
2021/07/18 00:43:19;;;;;;;7.00;3.85;;;;;;;15.48;83.41;101677.53;694318;28;1971;-54
2021/07/18 00:43:40;;;;;;;7.93;3.80;;;;;;;15.54;82.71;101672.19;694279;28;4414;-56
2021/07/18 00:44:00;;;;;;;6.20;3.60;;;;;;;15.57;83.02;101674.78;694608;28;3974;-56
2021/07/18 00:44:20;;;;;;;6.13;3.50;;;;;;;15.53;83.75;101674.84;695657;28;1392;-54
2021/07/18 00:44:41;;;;;;;6.60;3.63;;;;;;;15.50;83.13;101673.09;695381;28;1833;-54
2021/07/18 00:45:03;;;;;;;6.15;3.60;;;;;;;15.52;83.03;101668.72;695197;28;1425;-53
2021/07/18 00:45:24;;;;;;;5.13;3.47;;;;;;;15.54;83.43;101671.31;694558;28;1488;-56
2021/07/18 00:45:44;;;;;;;6.13;3.70;;;;;;;15.55;83.23;101667.78;695878;28;4447;-53
2021/07/18 00:46:06;;;;;;;7.13;3.70;;;;;;;15.54;83.25;101677.47;695435;28;1938;-56
2021/07/18 00:46:26;;;;;;;6.68;3.80;;;;;;;15.54;83.08;101672.19;694946;28;4496;-54
2021/07/18 00:46:46;;;;;;;6.57;3.87;;;;;;;15.53;83.00;101673.06;694037;28;4559;-53
2021/07/18 00:47:07;;;;;;;6.43;3.47;;;;;;;15.60;82.73;101673.88;695034;28;4237;-59
2021/07/18 00:47:28;;;;;;;6.07;3.30;;;;;;;15.69;82.31;101675.56;694724;28;1437;-51
2021/07/18 00:47:48;;;;;;;7.47;3.40;;;;;;;15.70;82.15;101679.94;694401;28;1558;-58
2021/07/18 00:48:08;;;;;;;6.20;3.30;;;;;;;15.73;82.18;101669.38;695174;28;1446;-53
2021/07/18 00:48:31;;;;;;;6.15;3.88;;;;;;;15.62;83.15;101670.34;695697;28;1334;-55
2021/07/18 00:48:51;;;;;;;7.32;4.00;;;;;;;15.57;83.06;101666.03;695289;28;1476;-51
2021/07/18 00:49:12;;;;;;;8.02;3.67;;;;;;;15.57;83.14;101671.28;695786;28;4433;-52
2021/07/18 00:49:32;;;;;;;6.93;3.50;;;;;;;15.55;83.60;101673.94;695039;28;4759;-52
2021/07/18 00:49:53;;;;;;;7.10;3.75;;;;;;;15.51;83.55;101672.22;694016;28;4523;-53
2021/07/18 00:50:16;;;;;;;7.07;3.77;;;;;;;15.53;83.40;101669.56;694745;28;4610;-54
2021/07/18 00:50:43;;;;;;;6.00;3.80;;;;;;;15.46;83.87;101668.75;694230;28;1575;-54
2021/07/18 00:51:04;;;;;;;6.47;3.60;;;;;;;15.49;83.12;101668.72;694624;28;2803;-52
2021/07/18 00:51:24;;;;;;;5.57;3.60;;;;;;;15.54;82.96;101672.19;694353;28;1766;-52
2021/07/18 00:51:45;;;;;;;6.80;3.60;;;;;;;15.57;82.73;101666.88;695260;28;1264;-55
2021/07/18 00:52:07;;;;;;;6.55;3.45;;;;;;;15.54;83.02;101666.91;694885;28;1405;-52
2021/07/18 00:52:27;;;;;;;6.35;3.70;;;;;;;15.52;83.01;101666.06;695090;28;4568;-56
2021/07/18 00:52:48;;;;;;;6.40;3.87;;;;;;;15.51;83.37;101666.94;696831;28;4270;-52
2021/07/18 00:53:08;;;;;;;6.32;3.80;;;;;;;15.41;84.09;101670.53;696429;28;1846;-54
2021/07/18 00:53:30;;;;;;;6.30;3.60;;;;;;;15.37;84.25;101666.19;697271;28;4525;-54
2021/07/18 00:53:52;;;;;;;5.70;3.60;;;;;;;15.36;84.31;101667.09;696890;28;1740;-53
2021/07/18 00:54:13;;;;;;;6.13;3.80;;;;;;;15.37;83.93;101663.56;697974;28;1669;-54
2021/07/18 00:54:34;;;;;;;7.07;3.70;;;;;;;15.36;84.26;101664.47;697371;28;1398;-56
2021/07/18 00:54:55;;;;;;;7.07;3.53;;;;;;;15.32;84.30;101661.81;695295;28;1312;-53
2021/07/18 00:55:16;;;;;;;5.70;3.50;;;;;;;15.33;84.43;101662.72;695946;28;1569;-53
2021/07/18 00:55:39;;;;;;;5.90;3.63;;;;;;;15.31;84.08;101670.66;695277;28;4448;-54
2021/07/18 00:56:00;;;;;;;5.53;3.40;;;;;;;15.35;83.75;101666.19;694794;28;3201;-55
2021/07/18 00:56:21;;;;;;;5.80;3.70;;;;;;;15.31;84.53;101668.00;694240;28;4021;-54
2021/07/18 00:56:42;;;;;;;7.85;3.70;;;;;;;15.33;84.21;101668.84;694951;28;4758;-54
2021/07/18 00:57:05;;;;;;;7.28;3.80;;;;;;;15.37;84.02;101660.91;697345;28;1439;-54
2021/07/18 00:57:26;;;;;;;6.35;3.85;;;;;;;15.37;83.96;101668.81;697220;28;1644;-53
2021/07/18 00:57:48;;;;;;;6.53;3.70;;;;;;;15.41;83.47;101663.53;697829;28;1408;-54
2021/07/18 00:58:09;;;;;;;6.90;3.60;;;;;;;15.48;82.99;101664.34;698329;28;1379;-51
2021/07/18 00:58:31;;;;;;;5.85;3.63;;;;;;;15.53;82.99;101670.44;697358;28;4433;-52
2021/07/18 00:58:54;;;;;;;6.20;3.60;;;;;;;15.56;82.77;101666.91;695988;28;4717;-53
2021/07/18 00:59:15;;;;;;;7.03;3.72;;;;;;;15.55;82.55;101662.50;694179;28;4053;-52
2021/07/18 00:59:36;;;;;;;6.35;3.63;;;;;;;15.55;82.79;101665.16;697098;28;4371;-56
2021/07/18 00:59:56;;;;;;;6.88;3.40;;;;;;;15.54;82.35;101666.91;697073;28;1721;-52
2021/07/18 01:00:18;;;;;;;7.30;3.57;;;;;;;15.56;82.44;101662.53;697457;28;1663;-57
2021/07/18 01:00:38;;;;;;;6.47;3.63;;;;;;;15.55;82.50;101673.94;698818;28;1305;-56
2021/07/18 01:00:59;;;;;;;6.00;3.80;;;;;;;15.53;83.03;101667.78;697906;28;1389;-54
2021/07/18 01:01:19;;;;;;;5.30;3.60;;;;;;;15.53;82.99;101669.56;697552;28;1664;-55
2021/07/18 01:01:39;;;;;;;5.80;3.80;;;;;;;15.57;82.77;101669.50;694955;28;4673;-53
2021/07/18 01:02:00;;;;;;;5.38;3.35;;;;;;;15.56;82.64;101665.16;694982;28;4065;-52
2021/07/18 01:02:20;;;;;;;5.97;3.43;;;;;;;15.57;82.75;101671.28;695136;28;4253;-52
2021/07/18 01:02:41;;;;;;;5.90;3.53;;;;;;;15.51;83.13;101661.69;694369;28;4685;-55
2021/07/18 01:03:02;;;;;;;5.75;3.47;;;;;;;15.52;82.93;101668.72;693849;28;1892;-53
2021/07/18 01:03:22;;;;;;;6.13;3.53;;;;;;;15.54;82.44;101666.91;695120;28;1770;-55
2021/07/18 01:03:43;;;;;;;6.07;3.50;;;;;;;15.54;82.83;101661.66;695425;28;1393;-53
2021/07/18 01:04:03;;;;;;;6.60;3.60;;;;;;;15.54;82.69;101668.69;693988;28;1350;-53
2021/07/18 01:04:24;;;;;;;6.18;3.92;;;;;;;15.50;83.09;101666.06;695725;28;4295;-55
2021/07/18 01:04:44;;;;;;;6.10;3.80;;;;;;;15.46;82.93;101669.63;694998;28;4545;-55
2021/07/18 01:05:07;;;;;;;5.95;3.60;;;;;;;15.46;83.32;101666.13;695365;28;1544;-53
2021/07/18 01:05:27;;;;;;;6.72;3.65;;;;;;;15.45;83.13;101667.88;694880;28;4031;-52
2021/07/18 01:05:48;;;;;;;6.63;3.60;;;;;;;15.43;83.29;101663.50;694968;28;4188;-52
2021/07/18 01:06:08;;;;;;;5.73;3.57;;;;;;;15.45;83.11;101673.16;694937;28;1873;-53
2021/07/18 01:06:28;;;;;;;5.88;3.65;;;;;;;15.48;83.02;101672.25;695353;28;1865;-54
2021/07/18 01:06:49;;;;;;;6.23;3.77;;;;;;;15.50;82.98;101668.69;695653;28;1302;-54
2021/07/18 01:07:09;;;;;;;6.93;3.70;;;;;;;15.49;83.10;101672.25;695788;28;1992;-52
2021/07/18 01:07:30;;;;;;;6.20;3.63;;;;;;;15.51;82.57;101664.31;695002;28;4423;-52
2021/07/18 01:07:51;;;;;;;6.32;3.70;;;;;;;15.49;82.53;101669.59;694667;28;4394;-52
2021/07/18 01:08:11;;;;;;;5.80;3.45;;;;;;;15.47;83.24;101667.88;695424;28;1477;-52
2021/07/18 01:08:32;;;;;;;6.10;3.70;;;;;;;15.46;83.06;101664.34;695064;28;3910;-52
2021/07/18 01:08:52;;;;;;;6.85;3.70;;;;;;;15.42;83.53;101667.88;694684;28;4864;-52
2021/07/18 01:09:13;;;;;;;6.43;3.80;;;;;;;15.42;82.97;101667.88;693409;28;1634;-53
2021/07/18 01:09:34;;;;;;;5.40;3.57;;;;;;;15.48;82.87;101667.00;693488;28;1701;-52
2021/07/18 01:09:55;;;;;;;5.85;3.47;;;;;;;15.50;82.51;101665.19;695994;28;1722;-57
2021/07/18 01:10:16;;;;;;;6.23;3.47;;;;;;;15.47;83.16;101666.09;695875;28;1580;-54
2021/07/18 01:10:37;;;;;;;6.40;3.60;;;;;;;15.41;83.64;101667.91;695023;28;4757;-54
2021/07/18 01:10:58;;;;;;;5.63;3.40;;;;;;;15.35;84.13;101667.97;695084;28;1710;-53
2021/07/18 01:11:18;;;;;;;6.37;3.70;;;;;;;15.30;84.36;101668.88;695880;28;1459;-53
2021/07/18 01:11:38;;;;;;;6.30;3.50;;;;;;;15.28;84.27;101670.66;695617;28;4061;-53
2021/07/18 01:11:59;;;;;;;6.40;3.47;;;;;;;15.32;83.59;101669.72;695209;28;4417;-54
2021/07/18 01:12:19;;;;;;;5.60;3.20;;;;;;;15.42;82.92;101672.28;693739;28;1633;-55
2021/07/18 01:12:40;;;;;;;5.15;3.47;;;;;;;15.53;82.46;101669.56;694297;28;1619;-53
2021/07/18 01:13:00;;;;;;;5.70;3.40;;;;;;;15.57;81.99;101671.28;694493;28;1741;-53
2021/07/18 01:13:21;;;;;;;5.77;3.40;;;;;;;15.59;81.99;101669.50;694239;28;1526;-53
2021/07/18 01:13:41;;;;;;;6.00;3.23;;;;;;;15.61;81.83;101671.25;696911;28;5102;-54
2021/07/18 01:14:02;;;;;;;6.93;3.47;;;;;;;15.70;81.23;101670.28;697920;28;1285;-51
2021/07/18 01:14:22;;;;;;;5.28;3.08;;;;;;;15.78;80.35;101665.81;697874;28;1436;-56
2021/07/18 01:14:44;;;;;;;5.53;3.20;;;;;;;15.87;80.36;101666.63;697851;28;4222;-52
2021/07/18 01:15:05;;;;;;;6.20;3.22;;;;;;;15.92;80.20;101663.06;697310;28;4230;-53
2021/07/18 01:15:26;;;;;;;8.48;3.40;;;;;;;15.87;81.94;101664.88;697370;28;1868;-53
2021/07/18 01:15:46;;;;;;;6.40;3.50;;;;;;;15.81;81.12;101665.81;693635;28;3562;-55
2021/07/18 01:16:06;;;;;;;5.93;3.67;;;;;;;15.83;81.10;101663.16;695186;28;1671;-53
2021/07/18 01:16:27;;;;;;;6.38;3.40;;;;;;;15.90;80.77;101662.19;693748;28;4537;-55
2021/07/18 01:16:48;;;;;;;5.97;3.30;;;;;;;15.92;80.14;101662.16;694981;28;4338;-55
2021/07/18 01:17:08;;;;;;;5.03;3.30;;;;;;;15.89;80.81;101659.56;694965;28;1293;-52
2021/07/18 01:17:32;;;;;;;5.87;3.50;;;;;;;15.82;81.54;101667.56;695204;28;1325;-51
2021/07/18 01:17:52;;;;;;;6.13;3.40;;;;;;;15.75;82.02;101664.97;694287;28;2444;-52
2021/07/18 01:18:13;;;;;;;5.37;3.20;;;;;;;15.72;82.10;101673.78;694854;28;3361;-54
2021/07/18 01:18:34;;;;;;;5.22;3.13;;;;;;;15.70;82.06;101666.75;693575;28;4465;-54
2021/07/18 01:18:54;;;;;;;5.77;3.30;;;;;;;15.70;82.16;101661.50;693479;28;1646;-54
2021/07/18 01:19:19;;;;;;;6.00;3.35;;;;;;;15.66;82.44;101669.44;695246;28;1388;-54
2021/07/18 01:19:40;;;;;;;6.55;3.50;;;;;;;15.66;81.80;101665.94;694499;28;4317;-55
2021/07/18 01:20:03;;;;;;;5.72;3.30;;;;;;;15.68;81.75;101664.16;695269;28;1633;-54
2021/07/18 01:20:24;;;;;;;5.68;3.10;;;;;;;15.72;80.88;101667.63;693843;28;1310;-53
2021/07/18 01:20:45;;;;;;;5.27;3.30;;;;;;;15.69;82.34;101657.09;695007;28;1272;-52
2021/07/18 01:21:07;;;;;;;5.32;3.67;;;;;;;15.65;82.29;101669.47;694660;28;3731;-52
2021/07/18 01:21:28;;;;;;;5.00;3.40;;;;;;;15.62;82.56;101666.84;695212;28;4708;-55
2021/07/18 01:21:56;;;;;;;6.18;3.65;;;;;;;15.54;83.37;101661.66;694830;28;3946;-51
2021/07/18 01:22:16;;;;;;;6.32;3.72;;;;;;;15.47;83.51;101663.47;694223;28;1755;-57
2021/07/18 01:22:38;;;;;;;5.40;3.40;;;;;;;15.45;83.31;101664.34;694870;28;4550;-54
2021/07/18 01:22:59;;;;;;;5.25;3.50;;;;;;;15.44;83.39;101660.00;694641;28;1532;-54
2021/07/18 01:23:19;;;;;;;5.40;3.42;;;;;;;15.44;82.99;101662.63;695139;28;1492;-55
2021/07/18 01:23:40;;;;;;;6.50;3.40;;;;;;;15.46;82.71;101659.06;695779;28;1648;-52
2021/07/18 01:24:01;;;;;;;6.32;3.20;;;;;;;15.53;82.36;101659.03;695155;28;4242;-55
2021/07/18 01:24:22;;;;;;;6.05;3.33;;;;;;;15.49;83.30;101656.44;695332;28;4268;-53
2021/07/18 01:24:42;;;;;;;5.53;3.28;;;;;;;15.44;83.20;101660.00;694668;28;4405;-52
2021/07/18 01:25:08;;;;;;;6.73;3.70;;;;;;;15.44;83.17;101660.00;693747;28;4568;-52
2021/07/18 01:25:29;;;;;;;6.47;3.53;;;;;;;15.46;82.61;101663.47;693948;28;4405;-51
2021/07/18 01:25:52;;;;;;;6.32;3.40;;;;;;;15.50;82.59;101660.78;694541;28;4777;-52
2021/07/18 01:26:13;;;;;;;5.57;3.38;;;;;;;15.54;81.94;101660.78;695330;28;1410;-53
2021/07/18 01:26:34;;;;;;;5.90;3.53;;;;;;;15.58;81.87;101660.72;695397;28;1503;-55
2021/07/18 01:26:56;;;;;;;6.17;3.50;;;;;;;15.63;82.20;101671.22;695907;28;1650;-56
2021/07/18 01:27:17;;;;;;;6.20;3.53;;;;;;;15.70;81.18;101666.75;695828;28;3811;-55
2021/07/18 01:27:43;;;;;;;5.47;3.35;;;;;;;15.68;82.23;101665.91;694875;28;4140;-53
2021/07/18 01:28:08;;;;;;;6.63;3.42;;;;;;;15.62;82.78;101664.22;694988;28;4394;-53
2021/07/18 01:28:29;;;;;;;5.18;3.40;;;;;;;15.57;81.76;101661.59;694767;28;4356;-53
2021/07/18 01:28:49;;;;;;;6.03;3.60;;;;;;;15.60;82.25;101666.88;694501;28;4343;-55
2021/07/18 01:29:10;;;;;;;6.50;3.47;;;;;;;15.56;82.77;101657.25;695593;28;1403;-52
2021/07/18 01:29:32;;;;;;;5.70;3.50;;;;;;;15.56;82.58;101664.25;695358;28;1749;-55
2021/07/18 01:29:52;;;;;;;5.28;3.45;;;;;;;15.55;82.16;101658.13;695431;28;1376;-55
2021/07/18 01:30:14;;;;;;;7.27;3.70;;;;;;;15.54;82.77;101663.41;696174;28;2925;-55
2021/07/18 01:30:34;;;;;;;5.13;3.53;;;;;;;15.51;82.86;101656.41;695544;28;4332;-54
2021/07/18 01:30:55;;;;;;;5.83;3.40;;;;;;;15.49;83.34;101664.34;694437;28;1669;-55
2021/07/18 01:31:16;;;;;;;6.85;3.58;;;;;;;15.48;82.92;101661.72;694125;28;3525;-57
2021/07/18 01:31:37;;;;;;;6.57;3.60;;;;;;;15.49;82.61;101660.81;694280;28;4693;-52
2021/07/18 01:31:58;;;;;;;6.95;3.50;;;;;;;15.50;82.63;101657.28;695343;28;2074;-53
2021/07/18 01:32:19;;;;;;;6.20;3.47;;;;;;;15.53;82.57;101662.53;695486;28;1436;-54
2021/07/18 01:32:42;;;;;;;5.85;3.38;;;;;;;15.50;83.08;101652.88;695528;28;1495;-54
2021/07/18 01:33:03;;;;;;;4.95;3.33;;;;;;;15.45;83.28;101653.81;694953;28;1352;-56
2021/07/18 01:33:23;;;;;;;5.65;3.50;;;;;;;15.42;83.80;101652.06;695109;28;2865;-55
2021/07/18 01:33:46;;;;;;;7.13;3.92;;;;;;;15.41;83.73;101660.00;694483;28;4386;-54
2021/07/18 01:34:07;;;;;;;5.60;3.83;;;;;;;15.40;83.56;101658.28;694774;28;1602;-55
2021/07/18 01:34:28;;;;;;;5.50;3.55;;;;;;;15.40;83.62;101653.88;693801;28;4577;-54
2021/07/18 01:34:49;;;;;;;6.30;3.70;;;;;;;15.41;83.22;101663.53;694184;28;4806;-52
2021/07/18 01:35:11;;;;;;;5.80;3.63;;;;;;;15.46;82.76;101652.94;697715;28;1915;-54
2021/07/18 01:35:32;;;;;;;5.53;3.40;;;;;;;15.54;82.16;101651.09;697602;28;1822;-52
2021/07/18 01:35:52;;;;;;;5.63;3.50;;;;;;;15.55;82.42;101658.13;697707;28;1598;-52
2021/07/18 01:36:13;;;;;;;5.78;3.75;;;;;;;15.52;82.87;101652.91;698225;28;1432;-53
2021/07/18 01:36:33;;;;;;;7.90;3.70;;;;;;;15.49;83.13;101650.28;692513;28;4312;-52
2021/07/18 01:36:54;;;;;;;6.38;3.58;;;;;;;15.49;82.92;101650.28;691893;28;4665;-55
2021/07/18 01:37:14;;;;;;;6.28;3.42;;;;;;;15.46;83.23;101656.44;692588;28;1648;-56
2021/07/18 01:37:35;;;;;;;6.30;3.60;;;;;;;15.45;83.15;101652.06;692120;28;4575;-52
2021/07/18 01:37:57;;;;;;;6.30;3.60;;;;;;;15.42;83.57;101652.06;691418;28;4551;-53
2021/07/18 01:38:18;;;;;;;5.38;3.45;;;;;;;15.40;83.39;101648.59;692892;28;1941;-55
2021/07/18 01:38:38;;;;;;;6.45;3.60;;;;;;;15.40;83.61;101658.28;694505;28;1923;-52
2021/07/18 01:38:58;;;;;;;6.67;3.70;;;;;;;15.37;83.72;101658.28;695086;28;1264;-55
2021/07/18 01:39:19;;;;;;;7.10;3.60;;;;;;;15.37;83.61;101658.28;694766;28;1271;-54
2021/07/18 01:39:40;;;;;;;7.30;3.80;;;;;;;15.36;83.82;101653.94;695128;28;4282;-52